Accueil
METAR-TAF:

METAR-TAF

Aéroports :

Udine, Italie

latitude: 45-59N, longitude: 013-02E, altitude: 51 m

Observation

Le bulletin a été fait il y a 11 heures et 29 minutes, à 13:55 UTC
Vent 8 kt de sud/sud-est
Température 23°C
Humidité 44%
Pression 1024 hPa
Visibilité 10 km ou plus
Quelques nuages à une hauteur de 4000 ft, Cumulus congestus.
Nuages épars à une hauteur de 8000 ft

METAR: LIPI 251355Z 16008KT 9999 FEW040TCU SCT080 23/10 Q1024 RMK BKN VIS MIN 9999 WIND THR06 17008KT WIND THR24 19008KT BLU

Heure: 03:24 (01:24 UTC)

Prévision

Le bulletin a été fait il y a 14 heures et 24 minutes, à 11:00 UTC
Prévision valable du 25 à 12 UTC au 25 à 21 UTC
Vent 7 kt de sud-ouest
Visibilité 10 km ou plus
Nuages épars à une hauteur de 4000 ft

TAF: LIPI 251100Z 2512/2521 22007KT 9999 SCT040

Observations et prévisions météorologiques de plus de 4000 aéroports (messages METAR et TAF).

Les stations disponibles sont représentées par des disques jaunes et rouges sur la carte.

Passer la souris dessus pour voir le nom de la station.

Cliquer dessus pour voir les observations et prévisions météorologiques.

Pour changer de carte: cliquez sur les boutons verts avec une croix noire pour zoomer, sur le bouton vert avec un tiret pour effectuer un zoom arrière, ou sur les flèches vertes pour les cartes adjacentes.


METAR-TAF: